createdAt,value
2019-03-06T00:04:40.035Z,4.90
2019-03-06T00:09:33.619Z,4.80
2019-03-06T00:14:27.565Z,4.80
2019-03-06T00:24:12.329Z,4.80
2019-03-06T00:29:03.740Z,4.70
2019-03-06T00:33:55.140Z,4.70
2019-03-06T00:38:48.755Z,4.70
2019-03-06T00:43:40.135Z,4.50
2019-03-06T00:48:31.573Z,4.50
2019-03-06T00:53:25.153Z,4.40
2019-03-06T00:58:16.638Z,4.40
2019-03-06T01:03:08.004Z,4.50
2019-03-06T01:07:59.356Z,4.50
2019-03-06T01:12:50.719Z,4.50
2019-03-06T01:17:42.172Z,4.40
2019-03-06T01:22:33.496Z,4.30
2019-03-06T01:27:24.874Z,4.20
2019-03-06T01:32:17.005Z,4.10
2019-03-06T01:37:07.650Z,4.10
2019-03-06T01:41:59.088Z,4.00
2019-03-06T01:46:52.853Z,4.00
2019-03-06T01:51:44.121Z,3.90
2019-03-06T01:56:35.546Z,3.80
2019-03-06T02:06:20.600Z,3.60
2019-03-06T02:11:12.026Z,3.50
2019-03-06T02:16:03.406Z,3.50
2019-03-06T02:20:54.764Z,3.30
2019-03-06T02:25:48.382Z,3.40
2019-03-06T02:30:39.854Z,3.40
2019-03-06T02:35:31.197Z,3.40
2019-03-06T02:40:22.615Z,3.20
2019-03-06T02:45:13.993Z,3.10
2019-03-06T02:50:07.624Z,2.90
2019-03-06T02:54:59.089Z,2.80
2019-03-06T02:59:50.471Z,2.70
2019-03-06T03:04:41.817Z,2.80
2019-03-06T03:09:33.166Z,2.70
2019-03-06T03:14:24.680Z,2.60
2019-03-06T03:24:09.992Z,2.70
2019-03-06T03:29:01.061Z,2.50
2019-03-06T03:33:52.471Z,2.30
2019-03-06T03:38:45.994Z,2.30
2019-03-06T03:43:37.485Z,2.20
2019-03-06T03:48:28.940Z,2.10
2019-03-06T03:53:20.287Z,2.00
2019-03-06T03:58:11.950Z,2.00
2019-03-06T04:03:03.093Z,1.90
2019-03-06T04:07:54.450Z,1.80
2019-03-06T04:12:45.900Z,1.80
2019-03-06T04:17:37.258Z,1.60
2019-03-06T04:22:28.687Z,1.60
2019-03-06T04:27:20.123Z,1.60
2019-03-06T04:32:12.015Z,1.50
2019-03-06T04:37:02.917Z,1.50
2019-03-06T04:41:54.233Z,1.40
2019-03-06T04:46:45.600Z,1.40
2019-03-06T04:51:39.238Z,1.30
2019-03-06T04:56:30.672Z,1.20
2019-03-06T05:06:15.824Z,1.20
2019-03-06T05:11:07.214Z,1.00
2019-03-06T05:15:58.563Z,1.10
2019-03-06T05:20:52.254Z,1.10
2019-03-06T05:25:43.729Z,1.00
2019-03-06T05:30:35.046Z,1.00
2019-03-06T05:35:27.388Z,1.10
2019-03-06T05:40:17.863Z,1.00
2019-03-06T05:45:09.255Z,1.00
2019-03-06T05:50:01.353Z,1.00
2019-03-06T05:54:52.077Z,0.90
2019-03-06T05:59:43.524Z,0.90
2019-03-06T06:04:34.924Z,0.90
2019-03-06T06:09:28.508Z,0.90
2019-03-06T06:14:20.010Z,0.90
2019-03-06T06:19:11.336Z,1.00
2019-03-06T06:24:02.744Z,1.20
2019-03-06T06:28:54.102Z,1.40
2019-03-06T06:33:45.600Z,1.50
2019-03-06T06:38:39.180Z,1.80
2019-03-06T06:43:30.673Z,1.70
2019-03-06T06:48:22.078Z,1.90
2019-03-06T06:53:14.340Z,1.90
2019-03-06T06:58:04.836Z,2.00
2019-03-06T07:02:56.286Z,2.00
2019-03-06T07:07:48.543Z,2.40
2019-03-06T07:12:39.062Z,2.70
2019-03-06T07:17:30.460Z,2.80
2019-03-06T07:22:21.843Z,3.10
2019-03-06T07:27:13.317Z,3.40
2019-03-06T07:32:04.687Z,3.60
2019-03-06T07:36:56.035Z,4.00
2019-03-06T07:41:47.417Z,4.20
2019-03-06T07:46:38.815Z,4.40
2019-03-06T07:51:32.517Z,4.60
2019-03-06T07:56:21.734Z,4.90
2019-03-06T08:01:18.012Z,5.10
2019-03-06T08:06:04.497Z,5.40
2019-03-06T08:10:55.853Z,5.70
2019-03-06T08:15:47.298Z,6.10
2019-03-06T08:20:38.673Z,6.40
2019-03-06T08:25:30.037Z,6.70
2019-03-06T08:30:21.422Z,6.80
2019-03-06T08:35:12.893Z,7.10
2019-03-06T08:40:04.304Z,7.20
2019-03-06T08:44:55.668Z,7.30
2019-03-06T08:49:47.152Z,7.50
2019-03-06T08:54:39.135Z,7.50
2019-03-06T08:59:29.916Z,7.70
2019-03-06T09:04:21.294Z,7.80
2019-03-06T09:09:13.402Z,8.20
2019-03-06T09:14:04.085Z,8.40
2019-03-06T09:18:55.557Z,8.50
2019-03-06T09:23:46.919Z,8.40
2019-03-06T09:28:38.283Z,8.50
2019-03-06T09:33:29.715Z,8.80
2019-03-06T09:38:21.066Z,9.20
2019-03-06T09:43:12.456Z,9.20
2019-03-06T09:48:03.882Z,9.40
2019-03-06T09:52:55.296Z,9.60
2019-03-06T09:57:46.671Z,9.80
2019-03-06T10:02:40.245Z,9.90
2019-03-06T10:07:31.692Z,9.90
2019-03-06T10:12:23.716Z,10.10
2019-03-06T10:17:14.560Z,10.30
2019-03-06T10:22:05.978Z,10.50
2019-03-06T10:26:58.157Z,10.70
2019-03-06T10:31:48.832Z,11.00
2019-03-06T10:36:40.232Z,11.20
2019-03-06T10:41:31.622Z,11.50
2019-03-06T10:46:22.973Z,11.70
2019-03-06T10:51:14.370Z,12.10
2019-03-06T10:56:05.758Z,12.10
2019-03-06T11:00:57.167Z,12.30
2019-03-06T11:05:50.763Z,12.60
2019-03-06T11:10:42.227Z,12.80
2019-03-06T11:15:33.616Z,12.90
2019-03-06T11:20:24.973Z,13.10
2019-03-06T11:25:16.425Z,13.30
2019-03-06T11:30:09.950Z,13.60
2019-03-06T11:35:01.449Z,13.90
2019-03-06T11:39:52.816Z,14.10
2019-03-06T11:44:44.238Z,14.60
2019-03-06T11:49:37.798Z,14.80
2019-03-06T11:54:31.440Z,15.00
2019-03-06T11:59:22.966Z,15.20
2019-03-06T12:04:16.525Z,14.80
2019-03-06T12:09:10.168Z,14.90
2019-03-06T12:14:01.688Z,14.90
2019-03-06T12:18:53.075Z,15.10
2019-03-06T12:23:44.543Z,15.30
2019-03-06T12:28:36.302Z,15.30
2019-03-06T12:33:27.189Z,15.60
2019-03-06T12:38:18.630Z,15.70
2019-03-06T12:43:10.042Z,15.80
2019-03-06T12:48:08.172Z,16.00
2019-03-06T12:52:59.573Z,16.00
2019-03-06T12:58:00.219Z,16.30
2019-03-06T13:02:42.934Z,16.40
2019-03-06T13:07:33.867Z,16.40
2019-03-06T13:12:29.456Z,16.30
2019-03-06T13:17:18.829Z,16.30
2019-03-06T13:22:13.529Z,16.30
2019-03-06T13:27:01.571Z,16.50
2019-03-06T13:31:52.982Z,16.30
2019-03-06T13:36:44.360Z,16.40
2019-03-06T13:41:35.782Z,16.20
2019-03-06T13:46:29.321Z,16.10
2019-03-06T13:51:20.794Z,16.00
2019-03-06T13:56:14.372Z,16.00
2019-03-06T14:01:05.843Z,16.00
2019-03-06T14:05:57.245Z,16.10
2019-03-06T14:10:48.620Z,16.30
2019-03-06T14:15:40.424Z,16.10
2019-03-06T14:20:31.393Z,16.10
2019-03-06T14:25:22.770Z,16.10
2019-03-06T14:30:14.220Z,16.10
2019-03-06T14:35:05.533Z,16.20
2019-03-06T14:40:06.656Z,16.20
2019-03-06T14:44:49.040Z,16.10
2019-03-06T14:49:39.723Z,15.90
2019-03-06T14:54:31.076Z,16.00
2019-03-06T14:59:22.514Z,15.90
2019-03-06T15:04:14.236Z,15.80
2019-03-06T15:09:05.269Z,15.80
2019-03-06T15:13:58.827Z,15.60
2019-03-06T15:18:50.312Z,15.60
2019-03-06T15:23:42.429Z,15.40
2019-03-06T15:28:33.091Z,15.40
2019-03-06T15:33:24.470Z,15.30
2019-03-06T15:38:15.823Z,15.20
2019-03-06T15:43:09.726Z,15.00
2019-03-06T15:48:00.844Z,15.00
2019-03-06T15:52:52.311Z,14.80
2019-03-06T15:57:43.689Z,14.70
2019-03-06T16:02:35.569Z,14.50
2019-03-06T16:07:28.629Z,14.30
2019-03-06T16:12:20.022Z,14.30
2019-03-06T16:17:11.469Z,14.20
2019-03-06T16:22:07.350Z,14.20
2019-03-06T16:27:00.978Z,14.00
2019-03-06T16:31:52.506Z,14.00
2019-03-06T16:36:43.845Z,13.80
2019-03-06T16:41:35.246Z,13.60
2019-03-06T16:46:26.600Z,13.50
2019-03-06T16:51:18.028Z,13.40
2019-03-06T16:56:11.586Z,13.20
2019-03-06T17:01:03.061Z,13.10
2019-03-06T17:05:55.345Z,13.00
2019-03-06T17:10:45.922Z,12.80
2019-03-06T17:15:37.273Z,12.60
2019-03-06T17:20:28.606Z,12.30
2019-03-06T17:25:20.064Z,12.30
2019-03-06T17:30:11.415Z,12.10
2019-03-06T17:35:02.850Z,11.90
2019-03-06T17:39:54.274Z,11.70
2019-03-06T17:44:45.662Z,11.60
2019-03-06T17:49:39.231Z,11.50
2019-03-06T17:54:30.759Z,11.40
2019-03-06T17:59:22.104Z,11.40
2019-03-06T18:04:15.717Z,11.30
2019-03-06T18:09:07.195Z,11.30
2019-03-06T18:13:58.596Z,11.20
2019-03-06T18:18:49.963Z,11.20
2019-03-06T18:23:41.327Z,11.20
2019-03-06T18:28:32.757Z,11.20
2019-03-06T18:33:24.137Z,11.10
2019-03-06T18:38:16.343Z,11.00
2019-03-06T18:43:06.971Z,10.90
2019-03-06T18:47:58.316Z,10.80
2019-03-06T18:52:49.850Z,10.70
2019-03-06T18:57:41.153Z,10.70
2019-03-06T19:02:32.530Z,10.60
2019-03-06T19:07:23.959Z,10.50
2019-03-06T19:12:15.359Z,10.50
2019-03-06T19:17:06.809Z,10.40
2019-03-06T19:22:00.363Z,10.40
2019-03-06T19:26:51.882Z,10.50
2019-03-06T19:31:43.213Z,10.70
2019-03-06T19:36:36.793Z,10.80
2019-03-06T19:41:28.656Z,10.90
2019-03-06T19:46:19.811Z,11.00
2019-03-06T19:51:13.288Z,11.30
2019-03-06T19:56:04.847Z,11.30
2019-03-06T20:00:58.495Z,11.20
2019-03-06T20:05:49.867Z,11.30
2019-03-06T20:10:41.353Z,11.30
2019-03-06T20:15:32.785Z,11.30
2019-03-06T20:20:26.199Z,11.40
2019-03-06T20:25:17.670Z,11.50
2019-03-06T20:30:09.096Z,11.50
2019-03-06T20:35:04.938Z,11.50
2019-03-06T20:39:56.413Z,11.40
2019-03-06T20:44:47.828Z,11.50
2019-03-06T20:49:39.244Z,11.50
2019-03-06T20:54:30.712Z,11.50
2019-03-06T20:59:24.178Z,11.60
2019-03-06T21:04:19.503Z,11.50
2019-03-06T21:09:09.286Z,11.40
2019-03-06T21:14:00.761Z,11.30
2019-03-06T21:18:54.266Z,11.20
2019-03-06T21:23:45.787Z,11.20
2019-03-06T21:28:39.368Z,11.20
2019-03-06T21:33:30.915Z,11.10
2019-03-06T21:38:24.413Z,11.00
2019-03-06T21:43:15.937Z,11.00
2019-03-06T21:48:07.289Z,10.90
2019-03-06T21:53:07.728Z,10.90
2019-03-06T21:58:01.523Z,10.80
2019-03-06T22:02:53.109Z,10.70
2019-03-06T22:07:44.410Z,10.50
2019-03-06T22:12:37.972Z,10.40
2019-03-06T22:17:29.453Z,10.20
2019-03-06T22:22:20.829Z,10.10
2019-03-06T22:27:14.449Z,10.10
2019-03-06T22:32:05.928Z,9.90
2019-03-06T22:36:57.334Z,9.70
2019-03-06T22:41:48.721Z,9.60
2019-03-06T22:46:42.292Z,9.50
2019-03-06T22:51:34.030Z,9.40
2019-03-06T22:56:25.218Z,9.20
2019-03-06T23:01:18.795Z,9.00
2019-03-06T23:06:10.257Z,9.00
2019-03-06T23:11:03.941Z,8.80
2019-03-06T23:15:55.486Z,8.60
2019-03-06T23:20:46.812Z,8.40
2019-03-06T23:25:43.029Z,8.30
2019-03-06T23:30:34.170Z,8.20
2019-03-06T23:35:25.558Z,8.00
2019-03-06T23:40:17.046Z,7.80
2019-03-06T23:45:08.453Z,7.60
2019-03-06T23:50:02.055Z,7.40
2019-03-06T23:54:53.551Z,7.30
2019-03-06T23:59:44.905Z,7.20
